East Berne, New York
Current Conditions -  °F | °C
As of 10:21 AM on Sunday 21 Dec 2014 (Local Time) from KALB Reporting Station
Light Snow Light Snow  
Wind Chill: -5°   Ceiling: 2900
Heat Index: -2°   Visibility: 6mi
Dew Point: -6°   Wind: 5mph
Humidity: 78%   Direction: 350°N
Pressure: 30.37"   Gusts: NA
Location:  42.62°N, 74.07°W
Report Text: KALB 211521Z 35004KT 6SM -SN BR SCT014 OVC029 M02/M06 A3037 RMK AO2 PCPN VRY LGT P0000 T10221056
Loading
Personal Weather Stations






























Interactive Weather Map New forecast layout! Learn more

10-Day Weather Forecast

Advertisements
Track Severe Weather on mobile